createdAt,value
2019-05-14T00:01:08.081Z,8.80
2019-05-14T00:03:48.749Z,8.70
2019-05-14T00:06:31.160Z,8.70
2019-05-14T00:09:12.314Z,8.60
2019-05-14T00:11:53.411Z,8.60
2019-05-14T00:14:39.560Z,8.60
2019-05-14T00:17:16.629Z,8.60
2019-05-14T00:20:07.349Z,8.50
2019-05-14T00:22:41.650Z,8.50
2019-05-14T00:25:22.791Z,8.60
2019-05-14T00:28:03.735Z,8.60
2019-05-14T00:30:44.759Z,8.60
2019-05-14T00:33:25.112Z,8.60
2019-05-14T00:36:05.637Z,8.50
2019-05-14T00:38:46.619Z,8.60
2019-05-14T00:41:27.528Z,8.50
2019-05-14T00:44:08.554Z,8.50
2019-05-14T00:46:51.452Z,8.50
2019-05-14T00:49:32.031Z,8.50
2019-05-14T00:52:13.176Z,8.60
2019-05-14T00:54:53.439Z,8.50
2019-05-14T00:57:33.761Z,8.40
2019-05-14T01:00:14.508Z,8.40
2019-05-14T01:02:55.068Z,8.30
2019-05-14T01:05:35.927Z,8.30
2019-05-14T01:08:17.183Z,8.30
2019-05-14T01:10:58.007Z,8.30
2019-05-14T01:13:38.494Z,8.20
2019-05-14T01:16:18.931Z,8.10
2019-05-14T01:19:01.851Z,8.20
2019-05-14T01:21:42.665Z,8.20
2019-05-14T01:24:23.692Z,8.20
2019-05-14T01:27:04.116Z,8.20
2019-05-14T01:29:44.778Z,8.10
2019-05-14T01:32:25.439Z,8.10
2019-05-14T01:35:06.154Z,8.20
2019-05-14T01:37:46.495Z,8.10
2019-05-14T01:40:27.362Z,8.10
2019-05-14T01:43:08.078Z,8.10
2019-05-14T01:45:49.439Z,8.00
2019-05-14T01:48:31.330Z,8.00
2019-05-14T01:51:12.367Z,8.00
2019-05-14T01:53:52.979Z,8.10
2019-05-14T01:56:33.725Z,8.00
2019-05-14T01:59:14.083Z,7.90
2019-05-14T02:01:54.504Z,7.90
2019-05-14T02:04:35.234Z,7.90
2019-05-14T02:07:16.220Z,7.90
2019-05-14T02:09:56.612Z,7.90
2019-05-14T02:12:37.353Z,7.80
2019-05-14T02:15:18.016Z,7.80
2019-05-14T02:17:58.391Z,7.80
2019-05-14T02:20:41.327Z,7.80
2019-05-14T02:23:22.766Z,7.70
2019-05-14T02:33:09.259Z,7.60
2019-05-14T02:35:50.281Z,7.70
2019-05-14T02:38:31.068Z,7.60
2019-05-14T02:41:11.910Z,7.60
2019-05-14T02:43:52.909Z,7.60
2019-05-14T02:46:33.660Z,7.50
2019-05-14T02:49:14.269Z,7.50
2019-05-14T02:51:54.883Z,7.60
2019-05-14T02:54:35.906Z,7.50
2019-05-14T02:57:19.721Z,7.50
2019-05-14T03:00:02.381Z,7.40
2019-05-14T03:02:42.755Z,7.40
